Time;durP1;ratioP1;P1;durP2;ratioP2;P2;SDS_P1;SDS_P2;PMS_P1;PMS_P2;Temp;Humidity;BMP_temperature;BMP_pressure;BME280_temperature;BME280_humidity;BME280_pressure;Samples;Min_cycle;Max_cycle;Signal;HPM_P1;HPM_P2
2023/10/28 00:00:29;;;;;;;10.97;9.93;;;6.10;99.90;5.30;98479;;;;570164;252;24088;-75
2023/10/28 00:02:55;;;;;;;11.13;10.13;;;6.20;99.90;5.30;98489;;;;565314;252;24126;-79
2023/10/28 00:05:24;;;;;;;10.77;9.73;;;6.20;99.90;5.30;98494;;;;569739;252;24083;-78
2023/10/28 00:07:52;;;;;;;11.23;10.07;;;6.10;99.90;5.30;98491;;;;565064;252;24129;-75
2023/10/28 00:10:21;;;;;;;10.67;9.73;;;6.20;99.90;5.30;98491;;;;561218;252;24113;-77
2023/10/28 00:12:51;;;;;;;10.90;9.90;;;6.20;99.90;5.30;98492;;;;564753;252;24096;-79
2023/10/28 00:15:18;;;;;;;11.93;10.80;;;6.20;99.90;5.30;98490;;;;572447;250;24146;-81
2023/10/28 00:17:47;;;;;;;11.40;10.20;;;6.10;99.90;5.20;98485;;;;560114;252;24076;-83
2023/10/28 00:20:13;;;;;;;10.23;9.23;;;6.10;99.90;5.20;98494;;;;568412;252;24099;-84
2023/10/28 00:22:40;;;;;;;11.17;10.07;;;6.10;99.90;5.20;98494;;;;564207;252;24104;-82
2023/10/28 00:25:11;;;;;;;11.03;10.03;;;6.10;99.90;5.20;98482;;;;568575;252;24135;-83
2023/10/28 00:27:36;;;;;;;11.90;10.70;;;6.10;99.90;5.20;98484;;;;568214;252;24164;-81
2023/10/28 00:30:07;;;;;;;10.83;9.73;;;6.10;99.90;5.20;98488;;;;568605;252;24478;-78
2023/10/28 00:32:33;;;;;;;11.30;10.30;;;6.10;99.90;5.20;98489;;;;559450;252;24150;-80
2023/10/28 00:35:02;;;;;;;11.17;10.17;;;6.10;99.90;5.20;98487;;;;568215;252;24146;-84
2023/10/28 00:37:30;;;;;;;14.17;10.90;;;6.10;99.90;5.20;98491;;;;568280;252;24087;-79
2023/10/28 00:39:58;;;;;;;13.27;11.10;;;6.10;99.90;5.20;98494;;;;568159;252;24084;-76
2023/10/28 00:42:29;;;;;;;11.90;10.53;;;6.10;99.90;5.20;98490;;;;568078;252;24123;-79
2023/10/28 00:44:57;;;;;;;12.47;11.23;;;6.10;99.90;5.20;98494;;;;557943;252;24105;-82
2023/10/28 00:47:26;;;;;;;14.33;10.67;;;6.10;99.90;5.20;98492;;;;568580;252;24322;-82
2023/10/28 00:49:54;;;;;;;13.67;9.63;;;6.10;99.90;5.20;98494;;;;568504;252;24110;-77
2023/10/28 00:52:22;;;;;;;10.23;9.33;;;6.10;99.90;5.20;98482;;;;560137;252;24107;-76
2023/10/28 00:54:54;;;;;;;9.60;8.70;;;6.10;99.90;5.20;98482;;;;564907;251;25182;-77
2023/10/28 00:57:19;;;;;;;10.07;9.17;;;6.10;99.90;5.20;98488;;;;569317;252;24085;-76
2023/10/28 00:59:46;;;;;;;11.13;10.03;;;6.10;99.90;5.20;98491;;;;573070;250;24111;-76
2023/10/28 01:02:14;;;;;;;9.87;8.97;;;6.10;99.90;5.30;98499;;;;569043;252;24154;-75
2023/10/28 01:04:42;;;;;;;11.07;8.70;;;6.10;99.90;5.20;98491;;;;560280;252;24082;-76
2023/10/28 01:07:10;;;;;;;9.90;8.90;;;6.10;99.90;5.20;98494;;;;564321;252;24099;-76
2023/10/28 01:09:47;;;;;;;9.70;8.67;;;6.10;99.90;5.20;98490;;;;564257;252;24098;-76
2023/10/28 01:12:18;;;;;;;9.50;8.63;;;6.10;99.90;5.20;98499;;;;564347;252;24131;-76
2023/10/28 01:14:46;;;;;;;8.53;7.47;;;6.10;99.90;5.20;98491;;;;555032;252;35346;-78
2023/10/28 01:17:13;;;;;;;7.10;5.60;;;6.20;99.90;5.30;98493;;;;555190;252;25489;-77
2023/10/28 01:19:40;;;;;;;6.63;5.27;;;6.10;99.90;5.30;98487;;;;564056;252;24091;-75
2023/10/28 01:22:08;;;;;;;10.03;7.17;;;6.20;99.90;5.30;98492;;;;563941;252;24091;-77
2023/10/28 01:24:36;;;;;;;8.60;7.30;;;6.20;99.90;5.30;98491;;;;568454;252;24110;-76
2023/10/28 01:27:04;;;;;;;8.97;8.17;;;6.20;99.90;5.30;98494;;;;563978;252;24086;-77
2023/10/28 01:29:33;;;;;;;10.53;9.43;;;6.20;99.90;5.30;98494;;;;564101;252;24083;-75
2023/10/28 01:32:03;;;;;;;8.17;7.47;;;6.20;99.90;5.30;98498;;;;563724;252;24216;-82
2023/10/28 01:34:28;;;;;;;10.43;6.80;;;6.20;99.90;5.30;98491;;;;559042;252;35297;-78
2023/10/28 01:36:56;;;;;;;8.02;6.25;;;6.20;99.90;5.30;98489;;;;559163;252;35281;-77
2023/10/28 01:39:24;;;;;;;7.75;6.45;;;6.20;99.90;5.30;98499;;;;555118;252;35239;-77
2023/10/28 01:41:52;;;;;;;6.00;4.63;;;6.20;99.90;5.30;98490;;;;564038;252;24079;-77
2023/10/28 01:44:20;;;;;;;4.73;4.33;;;6.20;99.90;5.30;98493;;;;564198;252;24106;-78
2023/10/28 01:46:48;;;;;;;5.90;5.37;;;6.30;99.90;5.30;98495;;;;559344;252;35297;-77
2023/10/28 01:49:16;;;;;;;4.50;4.10;;;6.20;99.90;5.30;98487;;;;571865;251;24162;-79
2023/10/28 01:51:44;;;;;;;8.00;5.70;;;5.80;99.90;5.30;98495;;;;558813;252;35317;-80
2023/10/28 01:54:12;;;;;;;5.40;4.43;;;6.30;99.90;5.30;98497;;;;559850;252;24093;-79
2023/10/28 01:56:40;;;;;;;4.23;3.43;;;6.30;99.90;5.30;98508;;;;559661;252;24229;-79
2023/10/28 01:59:08;;;;;;;4.90;3.87;;;6.30;99.90;5.40;98503;;;;563738;252;25179;-77
2023/10/28 02:01:36;;;;;;;6.33;5.07;;;6.20;99.90;5.30;98499;;;;563779;252;24122;-78
2023/10/28 02:04:06;;;;;;;6.70;6.10;;;6.30;99.90;5.40;98502;;;;564284;252;24119;-75
2023/10/28 02:06:33;;;;;;;6.57;5.87;;;6.30;99.90;5.30;98500;;;;564945;251;24130;-76
2023/10/28 02:09:02;;;;;;;6.83;6.23;;;6.20;99.90;5.30;98506;;;;565203;252;24102;-75
2023/10/28 02:11:29;;;;;;;6.90;6.30;;;6.30;99.90;5.30;98504;;;;565027;252;24153;-76
2023/10/28 02:13:57;;;;;;;6.00;5.50;;;6.20;99.90;5.40;98506;;;;564689;252;24191;-77
2023/10/28 02:16:25;;;;;;;6.10;5.60;;;6.30;99.90;5.30;98515;;;;564690;252;24146;-77
2023/10/28 02:18:54;;;;;;;6.60;6.00;;;6.20;99.90;5.30;98517;;;;572431;250;24153;-83
2023/10/28 02:21:21;;;;;;;7.00;6.03;;;6.20;99.90;5.30;98524;;;;564174;252;24118;-85
2023/10/28 02:23:49;;;;;;;7.97;6.40;;;6.20;99.90;5.30;98535;;;;564345;252;24103;-85
2023/10/28 02:26:17;;;;;;;5.30;4.80;;;6.20;99.90;5.30;98531;;;;559151;252;35316;-84
2023/10/28 02:28:45;;;;;;;4.87;4.00;;;6.20;99.90;5.30;98530;;;;564061;252;25447;-81
2023/10/28 02:31:12;;;;;;;4.67;4.07;;;6.20;99.90;5.30;98525;;;;563982;252;24131;-82
2023/10/28 02:33:40;;;;;;;6.93;6.23;;;6.20;99.90;5.30;98531;;;;564421;252;24088;-84
2023/10/28 02:36:08;;;;;;;6.07;5.27;;;6.20;99.90;5.30;98527;;;;564358;252;24127;-81
2023/10/28 02:38:36;;;;;;;6.93;6.13;;;6.20;99.90;5.30;98523;;;;568816;252;24102;-81
2023/10/28 02:41:07;;;;;;;6.57;5.90;;;6.20;99.90;5.30;98528;;;;564420;252;24136;-82
2023/10/28 02:43:39;;;;;;;6.30;5.80;;;6.20;99.90;5.30;98525;;;;572473;251;24086;-79
2023/10/28 02:46:05;;;;;;;6.00;5.60;;;6.20;99.90;5.30;98522;;;;560752;252;24142;-78
2023/10/28 02:48:34;;;;;;;7.60;6.10;;;6.20;99.90;5.30;98528;;;;573257;251;24115;-79
2023/10/28 02:51:10;;;;;;;6.20;5.60;;;6.20;99.90;5.30;98528;;;;563618;252;24094;-82
2023/10/28 02:53:38;;;;;;;5.97;5.47;;;6.20;99.90;5.30;98534;;;;559704;252;24088;-79
2023/10/28 02:56:03;;;;;;;6.47;5.97;;;6.10;99.90;5.30;98539;;;;554867;252;24169;-76
2023/10/28 02:58:31;;;;;;;4.93;4.43;;;6.10;99.90;5.20;98531;;;;550285;252;35258;-78
2023/10/28 03:01:08;;;;;;;4.73;3.97;;;6.10;99.90;5.20;98529;;;;555018;252;24121;-76
2023/10/28 03:03:35;;;;;;;5.60;3.83;;;6.10;99.90;5.30;98547;;;;560060;252;24229;-85
2023/10/28 03:06:03;;;;;;;6.37;5.40;;;6.20;99.90;5.30;98545;;;;564039;252;24057;-80
2023/10/28 03:08:31;;;;;;;6.60;6.00;;;6.10;99.90;5.30;98536;;;;560140;252;24099;-79
2023/10/28 03:11:00;;;;;;;6.63;6.03;;;6.20;99.90;5.30;98547;;;;563558;252;24142;-80
2023/10/28 03:13:27;;;;;;;6.17;5.57;;;6.20;99.90;5.30;98542;;;;563702;252;24161;-80
2023/10/28 03:15:56;;;;;;;6.03;5.57;;;6.20;99.90;5.30;98548;;;;563823;252;24108;-80
2023/10/28 03:18:24;;;;;;;6.90;6.23;;;6.20;99.90;5.30;98547;;;;564724;251;24162;-78
2023/10/28 03:20:55;;;;;;;6.17;5.67;;;6.20;99.90;5.30;98547;;;;556029;252;24085;-76
2023/10/28 03:23:19;;;;;;;6.17;5.57;;;6.20;99.90;5.30;98555;;;;560224;252;24134;-79
2023/10/28 03:25:47;;;;;;;6.80;6.10;;;6.20;99.90;5.30;98563;;;;564711;252;24082;-75
2023/10/28 03:28:15;;;;;;;5.77;5.20;;;6.20;99.90;5.30;98561;;;;564446;252;24159;-76
2023/10/28 03:30:44;;;;;;;6.63;6.13;;;6.20;99.90;5.30;98563;;;;564248;252;24103;-77
2023/10/28 03:33:12;;;;;;;6.77;6.10;;;6.20;99.90;5.30;98563;;;;564316;252;24161;-77
2023/10/28 03:35:43;;;;;;;6.30;5.70;;;6.20;99.90;5.30;98563;;;;564403;252;25219;-78
2023/10/28 03:38:09;;;;;;;7.03;5.63;;;6.20;99.90;5.30;98569;;;;560337;252;24408;-79
2023/10/28 03:40:36;;;;;;;9.83;6.50;;;6.20;99.90;5.30;98574;;;;564457;252;24145;-79
2023/10/28 03:43:04;;;;;;;6.53;5.93;;;6.10;99.90;5.30;98573;;;;560383;252;24101;-83
2023/10/28 03:45:32;;;;;;;6.30;5.70;;;6.10;99.90;5.20;98575;;;;564311;252;24095;-81
2023/10/28 03:48:01;;;;;;;6.83;5.87;;;6.10;99.90;5.30;98576;;;;564352;252;24147;-82
2023/10/28 03:50:29;;;;;;;5.97;5.43;;;6.10;99.90;5.30;98580;;;;564327;252;24088;-81
2023/10/28 03:52:57;;;;;;;5.73;5.33;;;6.20;99.90;5.30;98575;;;;572069;251;24172;-82
2023/10/28 03:55:25;;;;;;;6.73;6.13;;;6.20;99.90;5.30;98580;;;;564123;252;24294;-79
2023/10/28 03:57:56;;;;;;;6.13;5.57;;;6.20;99.90;5.30;98580;;;;563839;252;24098;-81
2023/10/28 04:00:21;;;;;;;6.47;5.87;;;6.20;99.90;5.30;98574;;;;559537;252;24107;-81
2023/10/28 04:02:52;;;;;;;6.57;5.97;;;6.20;99.90;5.30;98576;;;;559834;252;24103;-85
2023/10/28 04:05:20;;;;;;;6.23;5.63;;;6.20;99.90;5.30;98586;;;;564006;252;24158;-81
2023/10/28 04:07:48;;;;;;;7.67;5.93;;;6.20;99.90;5.30;98579;;;;564187;252;24082;-83
2023/10/28 04:10:16;;;;;;;6.03;5.53;;;6.20;99.90;5.30;98586;;;;563795;252;24157;-83
2023/10/28 04:12:44;;;;;;;7.43;5.93;;;6.20;99.90;5.30;98590;;;;563861;252;24106;-79
2023/10/28 04:15:13;;;;;;;5.47;4.97;;;6.20;99.90;5.30;98597;;;;563750;252;24071;-80
2023/10/28 04:17:40;;;;;;;6.20;5.70;;;6.20;99.90;5.30;98589;;;;563724;252;24228;-83
2023/10/28 04:20:10;;;;;;;5.80;5.30;;;6.20;99.90;5.30;98591;;;;563701;252;24084;-84
2023/10/28 04:22:40;;;;;;;6.80;6.20;;;6.20;99.90;5.30;98606;;;;559174;252;24140;-84
2023/10/28 04:25:05;;;;;;;5.90;4.97;;;6.20;99.90;5.30;98598;;;;559568;252;24141;-84
2023/10/28 04:27:32;;;;;;;6.03;5.50;;;6.20;99.90;5.30;98599;;;;559383;252;24119;-84
2023/10/28 04:30:03;;;;;;;6.47;5.97;;;6.20;99.90;5.30;98594;;;;560697;251;24131;-84
2023/10/28 04:32:28;;;;;;;7.47;5.63;;;6.20;99.90;5.40;98604;;;;555927;252;24136;-84
2023/10/28 04:34:57;;;;;;;6.53;5.93;;;6.20;99.90;5.30;98600;;;;565163;252;24097;-81
2023/10/28 04:37:24;;;;;;;5.90;5.30;;;6.20;99.90;5.40;98606;;;;565148;252;24105;-76
2023/10/28 04:39:52;;;;;;;7.10;5.93;;;6.20;99.90;5.40;98613;;;;564720;252;24079;-79
2023/10/28 04:42:20;;;;;;;6.63;6.03;;;6.30;99.90;5.40;98616;;;;564628;252;24133;-77
2023/10/28 04:44:48;;;;;;;6.27;5.77;;;6.30;99.90;5.40;98603;;;;564739;252;24103;-76
2023/10/28 04:47:16;;;;;;;6.10;5.60;;;6.30;99.90;5.40;98607;;;;564769;252;24083;-78
2023/10/28 04:49:44;;;;;;;7.03;6.33;;;6.30;99.90;5.40;98613;;;;564505;252;24111;-76
2023/10/28 04:52:12;;;;;;;6.33;5.80;;;6.30;99.90;5.40;98615;;;;564419;252;24088;-79
2023/10/28 04:54:41;;;;;;;6.60;6.00;;;6.30;99.90;5.40;98616;;;;572256;251;24194;-78
2023/10/28 04:57:09;;;;;;;6.43;5.93;;;6.20;99.90;5.40;98614;;;;564239;252;24143;-78
2023/10/28 04:59:36;;;;;;;11.07;5.90;;;6.30;99.90;5.40;98614;;;;564221;252;24115;-78
2023/10/28 05:02:04;;;;;;;6.13;5.63;;;6.20;99.90;5.40;98620;;;;564421;252;24132;-75
2023/10/28 05:04:32;;;;;;;6.27;5.13;;;6.20;99.90;5.40;98625;;;;564846;252;24100;-82
2023/10/28 05:07:01;;;;;;;5.37;4.87;;;6.20;99.90;5.40;98630;;;;564518;252;24128;-75
2023/10/28 05:09:30;;;;;;;6.17;5.57;;;6.30;99.90;5.40;98628;;;;564839;252;24099;-76
2023/10/28 05:11:58;;;;;;;5.93;5.33;;;6.30;99.90;5.40;98626;;;;568378;252;24089;-76
2023/10/28 05:14:27;;;;;;;5.57;5.07;;;6.20;99.90;5.40;98634;;;;572218;251;24077;-76
2023/10/28 05:16:57;;;;;;;7.20;6.03;;;6.20;99.90;5.40;98642;;;;564276;252;24137;-74
2023/10/28 05:19:22;;;;;;;6.67;6.00;;;6.20;99.90;5.40;98638;;;;572324;250;24128;-76
2023/10/28 05:21:50;;;;;;;5.97;5.47;;;6.20;99.90;5.40;98638;;;;564339;252;24119;-76
2023/10/28 05:24:18;;;;;;;6.33;5.73;;;6.20;99.90;5.30;98641;;;;572699;251;24138;-76
2023/10/28 05:26:46;;;;;;;7.03;6.43;;;6.20;99.90;5.40;98645;;;;565415;249;24111;-80
2023/10/28 05:29:16;;;;;;;6.50;5.90;;;6.20;99.90;5.40;98644;;;;565232;250;24141;-76
2023/10/28 05:31:42;;;;;;;8.40;6.37;;;6.20;99.90;5.40;98651;;;;564914;247;24092;-81
2023/10/28 05:34:12;;;;;;;6.20;5.70;;;6.20;99.90;5.30;98657;;;;564587;252;24096;-84
2023/10/28 05:36:39;;;;;;;6.40;5.90;;;6.20;99.90;5.30;98654;;;;564302;252;24142;-82
2023/10/28 05:39:07;;;;;;;7.13;6.13;;;6.20;99.90;5.40;98655;;;;564334;252;24133;-84
2023/10/28 05:41:35;;;;;;;6.40;5.27;;;6.20;99.90;5.40;98657;;;;565246;251;24090;-85
2023/10/28 05:44:04;;;;;;;5.73;5.23;;;6.20;99.90;5.40;98658;;;;565466;252;24083;-86
2023/10/28 05:46:32;;;;;;;6.00;5.47;;;6.20;99.90;5.40;98665;;;;560996;252;25208;-77
2023/10/28 05:49:00;;;;;;;6.60;5.93;;;6.20;99.90;5.40;98663;;;;564951;252;24114;-78
2023/10/28 05:51:27;;;;;;;8.40;5.57;;;6.30;99.90;5.40;98678;;;;564687;252;24107;-76
2023/10/28 05:53:55;;;;;;;6.47;5.37;;;6.30;99.90;5.40;98674;;;;564546;252;24103;-77
2023/10/28 05:56:23;;;;;;;6.47;5.87;;;6.30;99.90;5.40;98672;;;;572357;250;24095;-77
2023/10/28 05:58:51;;;;;;;5.47;5.07;;;6.30;99.90;5.40;98678;;;;564201;252;24170;-82
2023/10/28 06:01:19;;;;;;;7.50;5.60;;;6.30;99.90;5.40;98679;;;;564078;252;24080;-81
2023/10/28 06:03:47;;;;;;;5.60;5.13;;;6.30;99.90;5.40;98691;;;;564053;252;24129;-82
2023/10/28 06:06:18;;;;;;;5.27;4.77;;;6.30;99.90;5.40;98690;;;;564292;252;24118;-79
2023/10/28 06:08:43;;;;;;;6.20;5.70;;;6.30;99.90;5.40;98694;;;;560174;252;24125;-79
2023/10/28 06:11:11;;;;;;;5.70;5.20;;;6.20;99.90;5.40;98705;;;;564509;252;24111;-75
2023/10/28 06:13:39;;;;;;;6.97;4.83;;;6.20;99.90;5.30;98709;;;;564203;252;24077;-77
2023/10/28 06:16:06;;;;;;;5.27;4.77;;;6.20;99.90;5.30;98715;;;;564031;252;24129;-76
2023/10/28 06:18:34;;;;;;;6.43;4.60;;;6.10;99.90;5.30;98716;;;;563878;252;24114;-77
2023/10/28 06:21:03;;;;;;;5.00;4.10;;;6.10;99.90;5.30;98715;;;;563761;252;24132;-76
2023/10/28 06:23:30;;;;;;;4.90;4.40;;;6.10;99.90;5.30;98717;;;;559762;252;24082;-78
2023/10/28 06:25:59;;;;;;;4.57;4.17;;;6.10;99.90;5.30;98717;;;;571818;251;24142;-77
2023/10/28 06:28:27;;;;;;;4.37;4.07;;;6.10;99.90;5.30;98723;;;;563738;252;24089;-79
2023/10/28 06:30:55;;;;;;;4.13;3.77;;;6.20;99.90;5.30;98718;;;;563893;252;24098;-80
2023/10/28 06:33:24;;;;;;;4.40;4.10;;;6.20;99.90;5.40;98731;;;;563723;252;24126;-79
2023/10/28 06:35:54;;;;;;;5.57;3.70;;;6.30;99.90;5.40;98731;;;;564179;252;24113;-79
2023/10/28 06:38:19;;;;;;;5.40;3.40;;;6.30;99.90;5.50;98725;;;;560169;252;24086;-79
2023/10/28 06:40:48;;;;;;;3.17;2.97;;;6.40;99.90;5.50;98729;;;;564228;252;24142;-79
2023/10/28 06:43:16;;;;;;;3.10;2.80;;;6.40;99.90;5.60;98738;;;;564382;252;24130;-82
2023/10/28 06:45:44;;;;;;;4.93;3.10;;;6.40;99.90;5.70;98741;;;;564385;252;24084;-82
2023/10/28 06:48:12;;;;;;;3.13;2.93;;;6.50;99.90;5.80;98747;;;;564413;252;24075;-82
2023/10/28 06:50:39;;;;;;;2.30;2.20;;;6.60;99.90;6.00;98752;;;;564277;252;24171;-84
2023/10/28 06:53:09;;;;;;;2.07;1.97;;;6.80;99.90;6.10;98764;;;;565186;251;25190;-78
2023/10/28 06:55:35;;;;;;;2.30;2.10;;;6.90;99.90;6.40;98766;;;;573374;250;24216;-83
2023/10/28 06:58:03;;;;;;;2.00;1.90;;;7.10;99.90;6.50;98765;;;;572665;250;24118;-85
2023/10/28 07:00:31;;;;;;;1.57;1.40;;;7.30;99.90;6.50;98768;;;;560661;252;24181;-82
2023/10/28 07:02:59;;;;;;;1.30;1.20;;;7.30;99.90;6.40;98768;;;;564720;252;24135;-78
2023/10/28 07:05:27;;;;;;;1.30;1.10;;;7.30;99.90;6.30;98776;;;;564721;252;24089;-81
2023/10/28 07:07:58;;;;;;;1.60;1.30;;;7.20;99.90;6.30;98783;;;;564435;252;24079;-76
2023/10/28 07:10:23;;;;;;;1.63;1.17;;;7.10;99.90;6.20;98776;;;;560253;252;24185;-76
2023/10/28 07:12:56;;;;;;;0.83;0.83;;;7.00;99.90;6.20;98785;;;;560244;252;24176;-82
2023/10/28 07:15:21;;;;;;;2.80;2.03;;;7.00;99.90;6.20;98793;;;;559779;252;24108;-83
2023/10/28 07:17:49;;;;;;;1.37;1.10;;;7.00;99.90;6.20;98788;;;;564184;252;24091;-75
2023/10/28 07:20:19;;;;;;;1.20;1.10;;;7.00;99.90;6.00;98791;;;;564118;252;24091;-77
2023/10/28 07:22:44;;;;;;;1.53;1.30;;;6.90;99.90;6.00;98788;;;;564260;252;25222;-77
2023/10/28 07:25:12;;;;;;;2.23;1.40;;;6.80;99.90;5.90;98794;;;;564077;252;24126;-77
2023/10/28 07:27:42;;;;;;;1.30;1.30;;;6.70;99.90;5.90;98786;;;;572042;251;24114;-79
2023/10/28 07:30:12;;;;;;;1.20;1.13;;;6.70;99.90;5.90;98793;;;;563884;252;24122;-80
2023/10/28 07:32:37;;;;;;;2.97;2.10;;;6.70;99.90;5.90;98806;;;;559332;252;24180;-80
2023/10/28 07:35:06;;;;;;;5.93;3.30;;;6.70;99.90;5.80;98802;;;;563895;252;24185;-76
2023/10/28 07:37:34;;;;;;;4.53;2.70;;;6.60;99.90;5.80;98803;;;;559301;252;24164;-78
2023/10/28 07:40:03;;;;;;;4.37;2.20;;;6.60;99.90;5.80;98804;;;;564182;252;24098;-77
2023/10/28 07:42:30;;;;;;;5.70;2.53;;;6.60;99.90;5.80;98808;;;;555042;252;24124;-77
2023/10/28 07:44:58;;;;;;;8.93;3.43;;;6.60;99.90;5.80;98811;;;;563724;252;24098;-80
2023/10/28 07:47:30;;;;;;;6.23;2.83;;;6.60;99.90;5.80;98814;;;;563854;252;24152;-79
2023/10/28 07:49:54;;;;;;;7.33;2.80;;;6.60;99.90;5.80;98812;;;;559629;252;24168;-81
2023/10/28 07:52:22;;;;;;;7.17;3.10;;;6.60;99.90;5.80;98818;;;;564047;252;24131;-79
2023/10/28 07:54:49;;;;;;;4.03;2.40;;;6.60;99.90;5.80;98829;;;;563977;252;24099;-77
2023/10/28 07:57:17;;;;;;;3.00;2.60;;;6.60;99.90;5.80;98830;;;;564166;252;24144;-77
2023/10/28 07:59:45;;;;;;;4.23;2.43;;;6.60;99.90;5.80;98830;;;;572773;251;24090;-78
2023/10/28 08:02:13;;;;;;;3.10;2.90;;;6.70;99.90;5.80;98828;;;;564834;252;24132;-76
2023/10/28 08:04:41;;;;;;;6.70;3.87;;;6.70;99.90;5.90;98840;;;;565547;251;24081;-76
2023/10/28 08:07:09;;;;;;;4.27;3.60;;;6.70;99.90;5.90;98838;;;;565718;252;25265;-80
2023/10/28 08:09:37;;;;;;;8.63;3.73;;;6.80;99.90;6.00;98855;;;;565494;252;24094;-81
2023/10/28 08:12:08;;;;;;;4.20;3.13;;;6.90;99.90;6.10;98846;;;;564626;252;24098;-80
2023/10/28 08:14:35;;;;;;;6.30;3.63;;;6.90;99.90;6.10;98853;;;;564300;252;24078;-81
2023/10/28 08:17:05;;;;;;;7.77;4.10;;;6.90;99.90;6.10;98857;;;;564514;252;24094;-84
2023/10/28 08:19:30;;;;;;;7.50;4.50;;;7.00;99.90;6.20;98847;;;;568589;250;24132;-82
2023/10/28 08:22:02;;;;;;;4.23;3.67;;;7.00;99.90;6.20;98849;;;;564327;252;24139;-83
2023/10/28 08:24:27;;;;;;;3.87;2.67;;;7.20;99.90;6.30;98852;;;;559813;251;24148;-81
2023/10/28 08:26:56;;;;;;;8.90;4.65;;;7.10;99.90;6.40;98858;;;;559067;252;35222;-83
2023/10/28 08:29:23;;;;;;;4.63;3.07;;;7.20;99.90;6.40;98856;;;;559983;252;24176;-86
2023/10/28 08:31:54;;;;;;;7.13;2.90;;;7.30;99.90;6.50;98854;;;;568401;252;24114;-83
2023/10/28 08:34:19;;;;;;;4.63;3.20;;;7.40;99.90;6.60;98870;;;;564034;252;24088;-83
2023/10/28 08:36:47;;;;;;;6.20;3.03;;;7.50;99.90;6.60;98872;;;;564112;252;24094;-81
2023/10/28 08:39:15;;;;;;;8.60;3.97;;;7.50;99.90;6.60;98871;;;;564531;252;24134;-81
2023/10/28 08:41:47;;;;;;;6.30;3.80;;;7.50;99.90;6.60;98878;;;;564496;252;24143;-84
2023/10/28 08:44:17;;;;;;;8.97;3.73;;;7.50;99.90;6.70;98876;;;;559787;252;24151;-83
2023/10/28 08:46:48;;;;;;;13.57;6.60;;;7.60;99.90;6.70;98877;;;;555248;252;35412;-81
2023/10/28 08:49:11;;;;;;;8.07;4.33;;;7.50;99.90;6.70;98884;;;;559591;252;24124;-80
2023/10/28 08:51:39;;;;;;;6.47;3.90;;;7.60;99.90;6.80;98881;;;;555512;252;24099;-81
2023/10/28 08:54:11;;;;;;;8.03;3.57;;;7.60;99.90;6.80;98881;;;;560319;252;24196;-84
2023/10/28 08:56:40;;;;;;;5.20;3.63;;;7.70;99.90;6.80;98883;;;;560134;252;24140;-82
2023/10/28 08:59:04;;;;;;;3.00;2.70;;;7.70;99.90;6.80;98889;;;;559824;252;24145;-78
2023/10/28 09:01:32;;;;;;;4.10;3.07;;;7.70;99.90;6.90;98895;;;;571723;251;24118;-80
2023/10/28 09:04:00;;;;;;;5.37;2.43;;;7.70;99.90;6.90;98894;;;;559983;252;24104;-79
2023/10/28 09:06:31;;;;;;;3.20;2.57;;;7.70;99.90;6.90;98899;;;;559785;252;24107;-81
2023/10/28 09:09:02;;;;;;;2.00;1.90;;;7.80;99.90;7.00;98896;;;;564103;252;24156;-79
2023/10/28 09:11:27;;;;;;;4.90;3.30;;;7.80;99.90;7.00;98898;;;;559892;252;24098;-84
2023/10/28 09:13:56;;;;;;;6.33;3.57;;;7.90;99.90;7.10;98899;;;;564222;252;24120;-84
2023/10/28 09:16:24;;;;;;;10.23;4.80;;;7.90;99.90;7.10;98905;;;;565224;251;24127;-78
2023/10/28 09:18:50;;;;;;;4.43;3.27;;;8.00;99.90;7.10;98909;;;;565338;252;24088;-83
2023/10/28 09:21:19;;;;;;;10.63;4.00;;;7.90;99.90;7.00;98913;;;;564880;252;24101;-81
2023/10/28 09:23:46;;;;;;;9.93;4.67;;;7.90;99.90;7.00;98915;;;;565023;252;24132;-78
2023/10/28 09:26:14;;;;;;;10.90;4.33;;;7.90;99.90;6.90;98912;;;;560746;252;24395;-79
2023/10/28 09:28:48;;;;;;;8.43;3.93;;;7.80;99.90;6.90;98915;;;;564685;252;24143;-77
2023/10/28 09:31:13;;;;;;;8.27;4.40;;;7.80;99.90;6.80;98914;;;;571783;251;24206;-82
2023/10/28 09:33:41;;;;;;;3.57;2.57;;;7.70;99.90;6.80;98909;;;;560274;252;24162;-82
2023/10/28 09:36:12;;;;;;;3.87;2.93;;;7.60;99.90;6.80;98917;;;;568414;252;24086;-85
2023/10/28 09:38:42;;;;;;;4.47;3.13;;;7.70;99.90;6.80;98918;;;;560084;252;24116;-82
2023/10/28 09:41:09;;;;;;;2.87;2.57;;;7.70;99.90;6.80;98928;;;;568228;252;24131;-81
2023/10/28 09:43:34;;;;;;;3.37;2.83;;;7.70;99.90;6.90;98926;;;;560487;250;24095;-82
2023/10/28 09:46:02;;;;;;;6.57;2.97;;;7.70;99.90;6.90;98934;;;;560267;252;24106;-81
2023/10/28 09:48:29;;;;;;;2.47;2.27;;;7.70;99.90;6.90;98939;;;;566534;252;24095;-76
2023/10/28 09:51:00;;;;;;;2.93;2.23;;;7.80;99.90;7.10;98926;;;;560306;252;24096;-77
2023/10/28 09:53:35;;;;;;;2.40;2.20;;;7.90;99.90;7.10;98925;;;;560007;252;24164;-76
2023/10/28 09:55:59;;;;;;;3.70;2.90;;;8.00;99.90;7.20;98936;;;;559707;252;24094;-77
2023/10/28 09:58:28;;;;;;;2.97;2.57;;;8.00;99.90;7.20;98937;;;;559537;252;24120;-78
2023/10/28 10:00:55;;;;;;;1.80;1.70;;;8.10;99.90;7.30;98943;;;;560096;252;24102;-76
2023/10/28 10:03:50;;;;;;;2.70;2.23;;;8.10;99.90;7.40;98939;;;;559893;252;24111;-80
2023/10/28 10:06:18;;;;;;;8.87;4.07;;;8.20;99.90;7.50;98942;;;;560238;252;24179;-84
2023/10/28 10:08:47;;;;;;;3.80;2.80;;;8.30;99.90;7.50;98943;;;;559762;252;24133;-77
2023/10/28 10:11:15;;;;;;;2.83;2.57;;;8.30;99.90;7.50;98945;;;;555484;252;24125;-76
2023/10/28 10:13:46;;;;;;;3.77;2.13;;;8.40;99.90;7.50;98951;;;;559865;252;24111;-80
2023/10/28 10:16:41;;;;;;;3.63;2.33;;;8.30;99.90;7.50;98951;;;;560192;252;24105;-83
2023/10/28 10:19:10;;;;;;;2.03;1.83;;;8.30;99.90;7.50;98957;;;;563918;252;24126;-78
2023/10/28 10:21:42;;;;;;;2.90;2.50;;;8.30;99.90;7.40;98958;;;;559808;252;24158;-80
2023/10/28 10:24:07;;;;;;;4.73;2.90;;;8.30;99.90;7.40;98955;;;;559582;252;24139;-82
2023/10/28 10:26:35;;;;;;;2.90;2.60;;;8.30;99.90;7.40;98963;;;;559783;252;24123;-83
2023/10/28 10:29:08;;;;;;;8.90;4.63;;;8.20;99.90;7.50;98963;;;;565434;252;24086;-79
2023/10/28 10:31:38;;;;;;;7.80;6.07;;;8.30;99.90;7.50;98970;;;;573161;250;24118;-82
2023/10/28 10:34:09;;;;;;;5.47;3.37;;;8.30;99.90;7.60;98968;;;;572868;251;24128;-77
2023/10/28 10:36:36;;;;;;;5.10;2.90;;;8.40;99.90;7.60;98969;;;;560292;252;24101;-76
2023/10/28 10:39:16;;;;;;;7.97;3.00;;;8.40;99.90;7.60;98970;;;;560637;252;24116;-76
2023/10/28 10:41:44;;;;;;;1.80;1.70;;;8.40;99.90;7.60;98977;;;;569351;252;24087;-76
2023/10/28 10:44:33;;;;;;;2.40;2.20;;;8.40;99.90;7.60;98974;;;;560960;252;24080;-77
2023/10/28 10:47:00;;;;;;;2.30;1.90;;;8.50;99.90;7.70;98983;;;;560890;252;24091;-76
2023/10/28 10:49:32;;;;;;;5.23;3.27;;;8.50;99.90;7.60;98990;;;;556039;252;35180;-77
2023/10/28 10:51:56;;;;;;;4.13;2.83;;;8.40;99.90;7.50;98984;;;;560768;252;24131;-76
2023/10/28 10:54:24;;;;;;;3.67;2.03;;;8.30;99.90;7.40;98988;;;;560823;252;24102;-77
2023/10/28 10:56:52;;;;;;;3.07;2.17;;;8.20;99.90;7.30;98983;;;;560893;252;24102;-76
2023/10/28 10:59:20;;;;;;;3.97;2.93;;;8.20;99.90;7.30;98992;;;;564953;252;24093;-76
2023/10/28 11:01:48;;;;;;;1.90;1.80;;;8.10;99.90;7.30;99003;;;;565085;252;24094;-76
2023/10/28 11:04:19;;;;;;;1.90;1.70;;;8.20;99.90;7.30;99003;;;;560667;252;24123;-82
2023/10/28 11:06:46;;;;;;;2.70;2.50;;;8.10;99.90;7.20;99001;;;;571781;250;24124;-81
2023/10/28 11:09:15;;;;;;;3.90;2.07;;;8.10;99.90;7.20;99005;;;;559717;252;24151;-77
2023/10/28 11:11:42;;;;;;;6.90;4.33;;;8.10;99.90;7.20;99001;;;;564043;252;24084;-77
2023/10/28 11:14:08;;;;;;;4.57;3.93;;;8.00;99.90;7.20;99008;;;;555508;252;24096;-78
2023/10/28 11:16:39;;;;;;;3.20;2.90;;;8.00;99.90;7.20;99020;;;;564373;252;24133;-83
2023/10/28 11:19:04;;;;;;;3.43;2.70;;;8.00;99.90;7.20;99013;;;;560240;252;24117;-80
2023/10/28 11:21:32;;;;;;;3.00;2.30;;;8.00;99.90;7.20;99012;;;;572416;251;24103;-84
2023/10/28 11:24:02;;;;;;;2.47;2.10;;;8.00;99.90;7.20;99016;;;;572430;251;24090;-80
2023/10/28 11:26:30;;;;;;;5.47;2.80;;;8.00;99.90;7.20;99003;;;;572069;251;24110;-85
2023/10/28 11:29:01;;;;;;;2.70;2.50;;;8.00;99.90;7.20;99009;;;;572426;251;24098;-85
2023/10/28 11:31:31;;;;;;;2.27;2.07;;;8.00;99.90;7.20;99010;;;;564443;252;24091;-85
2023/10/28 11:33:59;;;;;;;2.77;2.57;;;8.00;99.90;7.10;99018;;;;560237;252;24100;-76
2023/10/28 11:36:30;;;;;;;4.97;3.50;;;7.90;99.90;7.10;99012;;;;559315;252;24104;-75